Time;durP1;ratioP1;P1;durP2;ratioP2;P2;SDS_P1;SDS_P2;PMS_P1;PMS_P2;Temp;Humidity;BMP_temperature;BMP_pressure;BME280_temperature;BME280_humidity;BME280_pressure;Samples;Min_cycle;Max_cycle;Signal;HPM_P1;HPM_P2
2021/07/02 00:01:18;;;;;;;23.97;17.97;;;17.70;99.90;;;;;;5032866;28;20664;-87
2021/07/02 00:03:44;;;;;;;20.60;17.27;;;17.70;99.90;;;;;;5051834;28;20170;-86
2021/07/02 00:06:10;;;;;;;22.73;17.00;;;17.70;99.90;;;;;;5052836;28;20299;-86
2021/07/02 00:08:35;;;;;;;26.40;18.10;;;17.70;99.90;;;;;;5051941;28;20192;-85
2021/07/02 00:11:01;;;;;;;25.40;18.53;;;17.80;99.90;;;;;;5044907;28;20206;-86
2021/07/02 00:13:27;;;;;;;25.20;18.23;;;17.80;99.90;;;;;;5036125;28;20174;-85
2021/07/02 00:15:53;;;;;;;26.70;17.40;;;17.70;99.90;;;;;;5036976;28;20174;-86
2021/07/02 00:18:19;;;;;;;24.90;17.67;;;17.70;99.90;;;;;;5035933;28;20485;-87
2021/07/02 00:20:45;;;;;;;23.80;17.73;;;17.80;99.90;;;;;;5035407;28;20193;-87
2021/07/02 00:23:10;;;;;;;25.10;18.87;;;17.80;99.90;;;;;;5035254;28;20413;-86
2021/07/02 00:25:38;;;;;;;24.50;17.17;;;17.80;99.90;;;;;;5042235;28;20174;-86
2021/07/02 00:28:05;;;;;;;22.40;17.73;;;17.80;99.90;;;;;;5052381;28;20178;-85
2021/07/02 00:30:32;;;;;;;24.00;18.80;;;17.80;99.90;;;;;;5052405;28;20970;-85
2021/07/02 00:32:58;;;;;;;24.80;18.13;;;17.70;99.90;;;;;;5052312;28;20397;-86
2021/07/02 00:35:24;;;;;;;23.90;18.03;;;17.80;99.90;;;;;;5051709;28;20424;-86
2021/07/02 00:37:50;;;;;;;22.37;17.40;;;17.80;99.90;;;;;;5052499;28;20178;-86
2021/07/02 00:40:15;;;;;;;21.40;17.07;;;17.80;99.90;;;;;;5047169;28;20420;-86
2021/07/02 00:42:41;;;;;;;22.70;19.07;;;17.80;99.90;;;;;;5034182;28;20583;-86
2021/07/02 00:45:07;;;;;;;22.67;18.70;;;17.90;99.90;;;;;;5034050;28;20345;-86
2021/07/02 00:47:33;;;;;;;24.90;18.53;;;17.80;99.90;;;;;;5017166;28;20248;-86
2021/07/02 00:49:59;;;;;;;26.33;19.17;;;17.80;99.90;;;;;;5036158;28;20397;-86
2021/07/02 00:52:25;;;;;;;25.53;18.57;;;17.90;99.90;;;;;;5017799;28;20674;-87
2021/07/02 00:54:52;;;;;;;22.03;18.03;;;17.80;99.90;;;;;;5036461;28;20321;-87
2021/07/02 00:57:18;;;;;;;22.50;18.37;;;17.90;99.90;;;;;;5053639;28;20446;-85
2021/07/02 00:59:44;;;;;;;24.40;18.63;;;17.90;99.90;;;;;;5054049;28;20420;-86
2021/07/02 01:02:10;;;;;;;22.57;17.63;;;17.90;99.90;;;;;;5038958;28;20895;-85
2021/07/02 01:04:37;;;;;;;28.50;21.20;;;17.90;99.90;;;;;;5058103;28;20174;-87
2021/07/02 01:07:04;;;;;;;23.50;19.40;;;17.90;99.90;;;;;;5057616;28;20411;-86
2021/07/02 01:09:30;;;;;;;26.17;18.60;;;17.90;99.90;;;;;;5054655;28;20262;-86
2021/07/02 01:11:56;;;;;;;23.10;18.80;;;17.80;99.90;;;;;;5036303;28;20543;-87
2021/07/02 01:14:22;;;;;;;25.53;19.40;;;17.90;99.90;;;;;;5035877;28;20425;-87
2021/07/02 01:16:48;;;;;;;25.17;18.60;;;17.90;99.90;;;;;;5018760;28;20503;-87
2021/07/02 01:19:14;;;;;;;28.30;19.40;;;17.90;99.90;;;;;;5035622;28;20166;-86
2021/07/02 01:21:40;;;;;;;25.40;19.53;;;17.90;99.90;;;;;;5036156;28;20186;-86
2021/07/02 01:24:06;;;;;;;25.80;20.50;;;17.90;99.90;;;;;;5036006;28;20417;-86
2021/07/02 01:26:32;;;;;;;25.73;18.97;;;17.90;99.90;;;;;;5018349;28;20202;-87
2021/07/02 01:28:59;;;;;;;25.63;19.13;;;17.90;99.90;;;;;;5036081;28;20420;-87
2021/07/02 01:31:26;;;;;;;25.30;19.13;;;17.80;99.90;;;;;;5035958;28;20811;-86
2021/07/02 01:33:51;;;;;;;26.80;19.90;;;17.90;99.90;;;;;;5017690;28;20508;-86
2021/07/02 01:36:22;;;;;;;25.93;18.83;;;17.80;99.90;;;;;;5034794;28;20452;-86
2021/07/02 01:38:48;;;;;;;26.13;18.80;;;17.80;99.90;;;;;;5034807;28;20179;-86
2021/07/02 01:41:14;;;;;;;23.93;18.90;;;17.80;99.90;;;;;;5034720;28;20401;-87
2021/07/02 01:43:40;;;;;;;24.53;19.37;;;17.80;99.90;;;;;;5035422;28;20427;-87
2021/07/02 01:46:06;;;;;;;26.10;18.30;;;17.80;99.90;;;;;;5036453;28;20536;-86
2021/07/02 01:48:33;;;;;;;28.40;19.83;;;17.80;99.90;;;;;;5034547;28;20413;-87
2021/07/02 01:50:58;;;;;;;24.27;18.93;;;17.80;99.90;;;;;;5048413;28;20459;-87
2021/07/02 01:53:24;;;;;;;28.57;18.97;;;17.80;99.90;;;;;;5054926;28;20422;-87
2021/07/02 01:55:50;;;;;;;23.83;20.33;;;17.80;99.90;;;;;;5037872;28;20170;-85
2021/07/02 01:58:16;;;;;;;29.50;21.10;;;17.90;99.90;;;;;;5054455;28;20293;-85
2021/07/02 02:00:42;;;;;;;25.73;19.40;;;17.90;99.90;;;;;;5054983;28;20460;-87
2021/07/02 02:03:07;;;;;;;29.20;20.30;;;17.90;99.90;;;;;;5055219;28;20166;-86
2021/07/02 02:05:33;;;;;;;28.30;19.07;;;17.90;99.90;;;;;;5036990;28;20194;-87
2021/07/02 02:07:59;;;;;;;25.17;19.60;;;17.90;99.90;;;;;;5035513;28;20189;-87
2021/07/02 02:10:27;;;;;;;27.30;20.97;;;17.90;99.90;;;;;;5016810;28;20173;-85
2021/07/02 02:12:53;;;;;;;26.67;20.70;;;17.90;99.90;;;;;;5017490;28;20178;-85
2021/07/02 02:15:19;;;;;;;28.03;19.63;;;17.80;99.90;;;;;;5034142;28;20413;-86
2021/07/02 02:17:44;;;;;;;27.23;20.20;;;17.80;99.90;;;;;;5035093;28;20174;-85
2021/07/02 02:20:12;;;;;;;32.00;21.13;;;17.90;99.90;;;;;;5035402;28;20185;-85
2021/07/02 02:22:38;;;;;;;27.50;20.60;;;17.90;99.90;;;;;;5034588;28;20232;-86
2021/07/02 02:25:05;;;;;;;25.77;20.03;;;17.90;99.90;;;;;;5034887;28;20428;-86
2021/07/02 02:27:31;;;;;;;26.37;20.53;;;17.90;99.90;;;;;;5016270;28;20917;-86
2021/07/02 02:29:57;;;;;;;28.90;20.17;;;17.80;99.90;;;;;;5034506;28;20402;-85
2021/07/02 02:32:23;;;;;;;27.33;20.53;;;17.80;99.90;;;;;;5033662;28;20457;-86
2021/07/02 02:34:49;;;;;;;26.63;20.53;;;17.80;99.90;;;;;;5034885;28;20282;-86
2021/07/02 02:37:14;;;;;;;25.77;20.90;;;17.80;99.90;;;;;;5034414;28;20181;-86
2021/07/02 02:39:40;;;;;;;25.37;19.10;;;17.80;99.90;;;;;;5050199;28;20216;-86
2021/07/02 02:42:06;;;;;;;30.43;20.43;;;17.80;99.90;;;;;;5054634;28;20258;-84
2021/07/02 02:44:32;;;;;;;26.83;21.50;;;17.80;99.90;;;;;;5053607;28;20239;-85
2021/07/02 02:46:58;;;;;;;26.23;19.40;;;17.80;99.90;;;;;;5054573;28;20174;-86
2021/07/02 02:49:24;;;;;;;24.83;19.10;;;17.80;99.90;;;;;;5054275;28;20416;-86
2021/07/02 02:51:50;;;;;;;26.27;19.70;;;17.80;99.90;;;;;;5055877;28;20292;-84
2021/07/02 02:54:16;;;;;;;27.80;20.43;;;17.90;99.90;;;;;;5055003;28;20504;-85
2021/07/02 02:57:03;;;;;;;26.13;19.93;;;17.80;99.90;;;;;;5055415;28;20431;-85
2021/07/02 02:59:27;;;;;;;29.53;19.80;;;17.80;99.90;;;;;;5039328;28;20257;-85
2021/07/02 03:01:54;;;;;;;31.30;21.07;;;17.80;99.90;;;;;;5035450;28;20414;-84
2021/07/02 03:04:19;;;;;;;27.00;20.43;;;17.80;99.90;;;;;;5033706;28;20410;-86
2021/07/02 03:06:45;;;;;;;27.83;20.47;;;17.80;99.90;;;;;;5015999;28;20412;-80
2021/07/02 03:09:11;;;;;;;28.00;21.00;;;17.80;99.90;;;;;;5034006;28;20224;-80
2021/07/02 03:11:36;;;;;;;27.40;20.10;;;17.70;99.90;;;;;;5033729;28;20213;-81
2021/07/02 03:14:02;;;;;;;25.80;20.67;;;17.80;99.90;;;;;;5033962;28;20174;-83
2021/07/02 03:16:29;;;;;;;24.93;20.20;;;17.80;99.90;;;;;;5033116;28;20175;-81
2021/07/02 03:18:55;;;;;;;26.37;21.77;;;17.80;99.90;;;;;;5033507;28;20185;-82
2021/07/02 03:21:21;;;;;;;26.47;21.20;;;17.80;99.90;;;;;;5033001;28;20397;-81
2021/07/02 03:23:46;;;;;;;26.30;19.90;;;17.80;99.90;;;;;;5033216;28;20221;-82
2021/07/02 03:26:13;;;;;;;27.00;19.70;;;17.80;99.90;;;;;;5034215;28;20582;-83
2021/07/02 03:28:39;;;;;;;26.67;19.77;;;17.80;99.90;;;;;;5033479;28;20652;-82
2021/07/02 03:31:04;;;;;;;24.93;20.73;;;17.80;99.90;;;;;;5033578;28;20460;-82
2021/07/02 03:33:30;;;;;;;27.20;21.17;;;17.90;99.90;;;;;;5033417;28;20181;-82
2021/07/02 03:35:56;;;;;;;27.87;20.90;;;17.90;99.90;;;;;;5033849;28;20192;-82
2021/07/02 03:38:21;;;;;;;25.83;22.30;;;17.80;99.90;;;;;;5033377;28;20216;-82
2021/07/02 03:40:47;;;;;;;28.87;21.17;;;17.90;99.90;;;;;;5033279;28;20185;-82
2021/07/02 03:43:13;;;;;;;27.17;20.90;;;17.90;99.90;;;;;;5032966;28;20182;-82
2021/07/02 03:45:38;;;;;;;24.13;19.10;;;17.90;99.90;;;;;;5049327;28;20233;-82
2021/07/02 03:48:04;;;;;;;28.27;21.10;;;17.90;99.90;;;;;;5052673;28;20182;-81
2021/07/02 03:50:30;;;;;;;26.93;19.40;;;17.90;99.90;;;;;;5051900;28;20174;-82
2021/07/02 03:52:56;;;;;;;23.73;20.17;;;17.90;99.90;;;;;;5034914;28;20403;-82
2021/07/02 03:55:21;;;;;;;27.43;19.50;;;17.90;99.90;;;;;;5051999;28;20165;-82
2021/07/02 03:57:47;;;;;;;28.30;20.27;;;17.90;99.90;;;;;;5052589;28;20204;-81
2021/07/02 04:00:13;;;;;;;28.83;20.37;;;17.90;99.90;;;;;;5052853;28;20172;-81
2021/07/02 04:02:39;;;;;;;29.60;21.23;;;17.90;99.90;;;;;;5051868;28;20574;-81
2021/07/02 04:05:05;;;;;;;30.63;20.30;;;17.90;99.90;;;;;;5038344;28;20467;-81
2021/07/02 04:07:31;;;;;;;24.73;20.10;;;17.90;99.90;;;;;;5031976;28;20182;-82
2021/07/02 04:09:56;;;;;;;32.00;20.37;;;17.90;99.90;;;;;;5033137;28;20904;-82
2021/07/02 04:12:22;;;;;;;26.03;20.13;;;18.00;99.90;;;;;;5031793;28;20202;-81
2021/07/02 04:14:48;;;;;;;27.33;20.20;;;17.90;99.90;;;;;;5014587;28;20178;-82
2021/07/02 04:17:14;;;;;;;25.30;19.30;;;17.90;99.90;;;;;;5032400;28;20175;-75
2021/07/02 04:19:40;;;;;;;29.27;19.50;;;17.90;99.90;;;;;;5031810;28;20532;-75
2021/07/02 04:22:06;;;;;;;27.37;18.97;;;17.90;99.90;;;;;;5032354;28;20186;-74
2021/07/02 04:24:33;;;;;;;29.87;20.80;;;17.90;99.90;;;;;;5043063;28;20420;-75
2021/07/02 04:26:59;;;;;;;24.27;18.90;;;17.90;99.90;;;;;;5052251;28;20930;-74
2021/07/02 04:29:26;;;;;;;26.50;18.80;;;17.90;99.90;;;;;;5051583;28;20415;-75
2021/07/02 04:31:51;;;;;;;24.63;18.87;;;17.90;99.90;;;;;;5051793;28;20213;-75
2021/07/02 04:34:18;;;;;;;24.97;18.57;;;17.90;99.90;;;;;;5052157;28;20450;-74
2021/07/02 04:36:44;;;;;;;28.17;19.80;;;17.90;99.90;;;;;;5054616;28;20312;-74
2021/07/02 04:39:10;;;;;;;28.63;20.10;;;17.90;99.90;;;;;;5055975;28;20446;-75
2021/07/02 04:41:37;;;;;;;22.87;18.73;;;17.90;99.90;;;;;;5055397;28;20443;-74
2021/07/02 04:44:03;;;;;;;26.17;19.37;;;17.90;99.90;;;;;;5043774;28;20186;-75
2021/07/02 04:46:29;;;;;;;25.60;19.20;;;18.00;99.90;;;;;;5035508;28;20465;-74
2021/07/02 04:48:55;;;;;;;29.83;20.20;;;18.00;99.90;;;;;;5035815;28;20424;-74
2021/07/02 04:51:21;;;;;;;24.67;18.80;;;18.00;99.90;;;;;;5035751;28;20292;-75
2021/07/02 04:53:46;;;;;;;23.63;16.90;;;18.10;99.90;;;;;;5035713;28;20178;-75
2021/07/02 04:56:13;;;;;;;23.93;18.70;;;18.10;99.90;;;;;;5035714;28;20922;-75
2021/07/02 04:58:40;;;;;;;27.53;18.70;;;18.10;99.90;;;;;;5035077;28;20416;-75
2021/07/02 05:01:07;;;;;;;24.37;20.53;;;18.10;99.90;;;;;;5036355;28;20948;-74
2021/07/02 05:03:33;;;;;;;26.33;19.50;;;18.20;99.90;;;;;;5034943;28;20409;-75
2021/07/02 05:06:01;;;;;;;25.33;19.50;;;18.20;99.90;;;;;;5035515;28;20814;-75
2021/07/02 05:08:27;;;;;;;27.23;21.07;;;18.20;99.90;;;;;;5034853;28;20177;-75
2021/07/02 05:10:53;;;;;;;23.47;18.00;;;18.20;99.90;;;;;;5035376;28;20445;-75
2021/07/02 05:13:18;;;;;;;25.70;19.97;;;18.20;99.90;;;;;;5035377;28;20171;-75
2021/07/02 05:15:44;;;;;;;23.20;18.80;;;18.30;99.90;;;;;;5041516;28;20219;-74
2021/07/02 05:18:10;;;;;;;30.03;21.20;;;18.30;99.90;;;;;;5055401;28;20185;-75
2021/07/02 05:20:35;;;;;;;23.37;18.93;;;18.30;99.90;;;;;;5054325;28;20632;-75
2021/07/02 05:23:01;;;;;;;26.70;19.40;;;18.40;99.90;;;;;;5055156;28;20623;-75
2021/07/02 05:25:27;;;;;;;25.73;19.63;;;18.40;99.90;;;;;;5054559;28;20180;-75
2021/07/02 05:27:52;;;;;;;24.43;18.20;;;18.40;99.90;;;;;;5055158;28;20173;-74
2021/07/02 05:30:19;;;;;;;25.43;18.03;;;18.40;99.90;;;;;;5053411;28;20170;-75
2021/07/02 05:32:44;;;;;;;22.70;18.27;;;18.50;99.90;;;;;;5042988;28;20616;-74
2021/07/02 05:35:10;;;;;;;24.50;18.77;;;18.50;99.90;;;;;;5054970;28;20408;-74
2021/07/02 05:37:41;;;;;;;24.10;18.57;;;18.50;99.90;;;;;;5054492;28;20178;-74
2021/07/02 05:40:07;;;;;;;22.40;18.30;;;18.50;99.90;;;;;;5054707;28;20176;-74
2021/07/02 05:42:32;;;;;;;22.63;17.87;;;18.60;99.90;;;;;;5040886;28;20420;-75
2021/07/02 05:44:58;;;;;;;24.40;18.80;;;18.60;99.90;;;;;;5050782;28;21231;-74
2021/07/02 05:47:24;;;;;;;27.83;20.30;;;18.60;99.90;;;;;;5053878;28;20182;-74
2021/07/02 05:49:50;;;;;;;25.20;18.07;;;18.60;99.90;;;;;;5053935;28;20259;-75
2021/07/02 05:52:16;;;;;;;20.20;14.93;;;18.60;99.90;;;;;;5053990;28;20951;-75
2021/07/02 05:54:45;;;;;;;20.80;16.50;;;18.60;99.90;;;;;;5053313;28;20177;-74
2021/07/02 05:57:10;;;;;;;17.93;14.80;;;18.70;99.90;;;;;;5054165;28;20178;-74
2021/07/02 05:59:36;;;;;;;23.63;15.90;;;18.70;99.90;;;;;;5052967;28;20417;-74
2021/07/02 06:02:02;;;;;;;22.60;18.80;;;18.60;99.90;;;;;;5053523;28;20189;-75
2021/07/02 06:04:28;;;;;;;19.00;17.10;;;18.60;99.90;;;;;;5053340;28;20190;-82
2021/07/02 06:06:53;;;;;;;26.07;18.33;;;18.60;99.90;;;;;;5053726;28;20213;-74
2021/07/02 06:09:20;;;;;;;19.13;15.47;;;18.60;99.90;;;;;;5053910;28;20213;-75
2021/07/02 06:11:45;;;;;;;20.00;16.23;;;18.60;99.90;;;;;;5053013;28;20210;-75
2021/07/02 06:14:11;;;;;;;24.97;17.90;;;18.60;99.90;;;;;;5053751;28;20415;-75
2021/07/02 06:16:37;;;;;;;19.43;16.73;;;18.60;99.90;;;;;;5048870;28;20183;-75
2021/07/02 06:19:02;;;;;;;23.60;17.67;;;18.60;99.90;;;;;;5043224;28;20201;-75
2021/07/02 06:21:29;;;;;;;23.90;15.80;;;18.70;99.90;;;;;;5053331;28;20185;-82
2021/07/02 06:23:55;;;;;;;21.87;15.90;;;18.70;99.90;;;;;;5053762;28;20181;-75
2021/07/02 06:26:20;;;;;;;20.10;15.47;;;18.80;99.90;;;;;;5053140;28;20420;-75
2021/07/02 06:28:46;;;;;;;26.30;16.90;;;18.80;99.90;;;;;;5052695;28;20182;-75
2021/07/02 06:31:12;;;;;;;19.20;15.00;;;18.80;99.90;;;;;;5052754;28;20206;-75
2021/07/02 06:33:38;;;;;;;17.83;14.40;;;18.90;99.90;;;;;;5043263;28;20184;-75
2021/07/02 06:36:04;;;;;;;14.00;12.50;;;19.00;99.90;;;;;;5045058;28;20182;-75
2021/07/02 06:38:30;;;;;;;18.17;13.67;;;19.10;99.90;;;;;;5047847;28;20180;-84
2021/07/02 06:40:55;;;;;;;15.20;13.23;;;19.20;99.90;;;;;;5051653;28;20488;-75
2021/07/02 06:43:21;;;;;;;16.33;13.40;;;19.20;99.90;;;;;;5033478;28;20523;-75
2021/07/02 06:45:47;;;;;;;16.90;13.77;;;19.20;99.90;;;;;;5044469;28;20221;-75
2021/07/02 06:48:13;;;;;;;14.90;13.43;;;19.30;99.90;;;;;;5056723;28;20545;-75
2021/07/02 06:50:43;;;;;;;15.93;13.50;;;19.30;99.90;;;;;;5070611;28;20415;-75
2021/07/02 06:53:10;;;;;;;15.20;13.53;;;19.30;99.90;;;;;;5070332;28;20459;-75
2021/07/02 06:55:36;;;;;;;14.57;13.07;;;19.30;99.90;;;;;;5063765;28;20854;-75
2021/07/02 06:58:03;;;;;;;15.60;12.93;;;19.30;99.90;;;;;;5064090;28;20510;-75
2021/07/02 07:00:29;;;;;;;13.10;11.67;;;19.40;99.90;;;;;;5058394;28;20205;-75
2021/07/02 07:02:56;;;;;;;14.73;13.10;;;19.40;99.90;;;;;;5060134;28;20534;-74
2021/07/02 07:05:22;;;;;;;14.57;13.27;;;19.50;99.90;;;;;;5052128;28;20806;-74
2021/07/02 07:07:48;;;;;;;15.67;14.10;;;19.50;99.90;;;;;;5071864;28;20946;-74
2021/07/02 07:10:14;;;;;;;13.97;12.43;;;19.60;99.90;;;;;;5072769;28;20403;-74
2021/07/02 07:12:40;;;;;;;14.27;11.63;;;19.60;99.30;;;;;;5072394;28;20207;-74
2021/07/02 07:15:07;;;;;;;14.20;12.70;;;19.80;99.30;;;;;;5072670;28;20502;-74
2021/07/02 07:17:32;;;;;;;12.90;11.70;;;19.90;99.60;;;;;;5071239;28;20789;-81
2021/07/02 07:19:59;;;;;;;14.73;12.00;;;19.90;99.20;;;;;;5054768;28;20408;-74
2021/07/02 07:22:24;;;;;;;13.07;11.80;;;19.90;98.80;;;;;;5056852;28;20169;-74
2021/07/02 07:24:51;;;;;;;13.23;12.00;;;20.00;99.80;;;;;;5072284;28;20766;-74
2021/07/02 07:27:18;;;;;;;11.93;10.73;;;20.00;99.10;;;;;;5072930;28;20169;-74
2021/07/02 07:29:43;;;;;;;17.83;13.00;;;20.10;99.40;;;;;;5072273;28;20464;-76
2021/07/02 07:32:10;;;;;;;13.67;12.20;;;20.00;99.40;;;;;;5072789;28;20533;-76
2021/07/02 07:34:52;;;;;;;15.77;14.10;;;20.10;99.20;;;;;;5067809;28;20170;-76
2021/07/02 07:37:22;;;;;;;15.57;14.07;;;20.20;98.90;;;;;;5052941;28;20440;-76
2021/07/02 07:39:49;;;;;;;11.20;10.03;;;20.20;98.80;;;;;;5060452;28;20399;-76
2021/07/02 07:42:15;;;;;;;12.03;10.70;;;20.30;97.50;;;;;;5072145;28;20415;-77
2021/07/02 07:44:41;;;;;;;12.20;10.90;;;20.30;97.00;;;;;;5071643;28;20450;-77
2021/07/02 07:47:08;;;;;;;15.80;12.80;;;20.40;97.40;;;;;;5070920;28;20434;-76
2021/07/02 07:49:33;;;;;;;12.77;11.37;;;20.50;97.70;;;;;;5058054;28;20256;-77
2021/07/02 07:52:14;;;;;;;13.20;11.93;;;20.60;97.70;;;;;;5071186;28;20915;-76
2021/07/02 07:54:41;;;;;;;12.90;11.23;;;20.80;97.20;;;;;;5071429;28;20173;-77
2021/07/02 07:57:07;;;;;;;13.00;11.70;;;20.90;96.80;;;;;;5072134;28;20431;-77
2021/07/02 07:59:34;;;;;;;11.63;10.43;;;21.10;96.50;;;;;;5071243;28;20399;-77
2021/07/02 08:02:00;;;;;;;13.90;12.60;;;21.30;96.50;;;;;;5068060;28;20423;-77
2021/07/02 08:04:26;;;;;;;12.10;10.83;;;21.30;95.70;;;;;;5062852;28;20407;-77
2021/07/02 08:06:52;;;;;;;12.33;10.83;;;21.20;94.50;;;;;;5052697;28;20257;-77
2021/07/02 08:09:18;;;;;;;12.33;9.77;;;21.10;94.00;;;;;;5068162;28;20226;-76
2021/07/02 08:11:45;;;;;;;12.50;11.50;;;20.90;94.90;;;;;;5075839;28;20477;-77
2021/07/02 08:14:11;;;;;;;11.20;10.10;;;20.80;95.00;;;;;;5076365;28;20415;-77
2021/07/02 08:16:39;;;;;;;10.40;9.40;;;20.70;94.40;;;;;;5074881;28;20489;-77
2021/07/02 08:19:05;;;;;;;10.23;9.17;;;20.60;94.60;;;;;;5056635;28;20503;-76
2021/07/02 08:21:31;;;;;;;10.47;9.47;;;20.60;95.00;;;;;;5055919;28;20415;-76
2021/07/02 08:23:57;;;;;;;9.97;9.00;;;20.80;95.80;;;;;;5057095;28;20412;-77
2021/07/02 08:26:24;;;;;;;11.10;10.10;;;20.90;95.10;;;;;;5062969;28;20837;-77
2021/07/02 08:31:35;;;;;;;9.80;8.90;;;21.00;94.60;;;;;;5073866;28;20439;-85
2021/07/02 08:34:01;;;;;;;10.23;9.33;;;21.00;95.70;;;;;;5075142;28;20407;-81
2021/07/02 08:36:27;;;;;;;9.80;8.93;;;21.00;95.00;;;;;;5074941;28;20183;-81
2021/07/02 08:38:54;;;;;;;9.63;7.87;;;20.90;94.70;;;;;;5056894;28;20429;-81
2021/07/02 08:41:19;;;;;;;8.50;7.70;;;20.90;94.90;;;;;;5075428;28;20424;-81
2021/07/02 08:43:47;;;;;;;9.00;7.30;;;21.00;94.60;;;;;;5074695;28;20403;-82
2021/07/02 08:46:16;;;;;;;8.50;7.40;;;21.10;93.40;;;;;;5059623;28;20233;-82
2021/07/02 08:48:45;;;;;;;8.83;8.00;;;21.30;93.50;;;;;;5044450;28;20478;-82
2021/07/02 08:51:11;;;;;;;8.80;8.10;;;21.50;94.10;;;;;;5035058;28;20476;-82
2021/07/02 08:53:37;;;;;;;8.93;8.13;;;21.70;93.70;;;;;;5042711;28;20455;-82
2021/07/02 08:56:04;;;;;;;7.30;6.60;;;21.80;92.90;;;;;;5054035;28;20419;-82
2021/07/02 08:58:31;;;;;;;8.60;7.90;;;21.80;91.80;;;;;;5034588;28;20514;-81
2021/07/02 09:00:57;;;;;;;6.70;6.10;;;21.70;91.80;;;;;;5034462;28;20408;-82
2021/07/02 09:03:30;;;;;;;10.87;9.20;;;21.60;90.90;;;;;;5052599;28;20420;-82
2021/07/02 09:06:14;;;;;;;8.87;8.07;;;21.50;91.10;;;;;;5047233;28;20927;-83
2021/07/02 09:09:00;;;;;;;6.13;5.73;;;21.40;92.10;;;;;;5036877;28;20418;-83
2021/07/02 09:11:34;;;;;;;6.20;5.70;;;21.50;92.20;;;;;;5052582;28;20470;-81
2021/07/02 09:14:01;;;;;;;6.37;5.87;;;21.70;91.20;;;;;;5038774;28;20432;-82
2021/07/02 09:16:47;;;;;;;6.70;6.20;;;21.80;92.20;;;;;;5035835;28;20439;-83
2021/07/02 09:19:19;;;;;;;6.43;6.03;;;22.00;91.50;;;;;;5033632;28;20443;-83
2021/07/02 09:21:45;;;;;;;5.97;5.57;;;22.20;91.20;;;;;;5033013;28;20787;-83
2021/07/02 09:24:44;;;;;;;6.17;5.40;;;22.40;90.60;;;;;;5017260;28;20905;-83
2021/07/02 09:27:25;;;;;;;5.93;5.53;;;22.70;90.10;;;;;;5034868;28;20474;-83
2021/07/02 09:30:12;;;;;;;5.93;5.53;;;22.90;89.10;;;;;;5054122;28;20799;-84
2021/07/02 09:32:40;;;;;;;6.67;6.00;;;23.00;85.40;;;;;;5019481;28;20467;-85
2021/07/02 09:35:07;;;;;;;6.30;5.77;;;23.20;85.10;;;;;;5054734;28;20513;-81
2021/07/02 09:37:38;;;;;;;6.43;5.83;;;23.30;86.20;;;;;;5054657;28;20416;-81
2021/07/02 09:40:19;;;;;;;7.40;6.70;;;23.40;86.10;;;;;;5054292;28;20416;-82
2021/07/02 09:42:45;;;;;;;6.97;6.40;;;23.60;82.60;;;;;;5054661;28;20408;-84
2021/07/02 09:45:17;;;;;;;6.03;5.50;;;23.60;83.30;;;;;;5044125;28;20545;-83
2021/07/02 09:47:45;;;;;;;5.47;5.17;;;23.50;81.00;;;;;;5057671;28;20432;-83
2021/07/02 09:50:28;;;;;;;6.03;5.63;;;23.30;80.10;;;;;;5071832;28;20514;-82
2021/07/02 09:52:54;;;;;;;5.43;5.03;;;23.20;83.30;;;;;;5073335;28;20488;-81
2021/07/02 09:55:22;;;;;;;5.50;5.10;;;23.20;81.90;;;;;;5062545;28;20424;-83
2021/07/02 09:57:48;;;;;;;5.70;5.20;;;23.30;84.30;;;;;;5061289;28;20633;-83
2021/07/02 10:00:16;;;;;;;4.57;4.37;;;23.30;85.70;;;;;;5052563;28;20465;-83
2021/07/02 10:02:58;;;;;;;5.47;5.17;;;23.50;83.60;;;;;;5073114;28;20181;-81
2021/07/02 10:05:25;;;;;;;4.50;4.30;;;23.80;83.70;;;;;;5071351;28;20438;-80
2021/07/02 10:07:56;;;;;;;4.27;3.97;;;23.90;79.20;;;;;;5073606;28;20415;-80
2021/07/02 10:10:25;;;;;;;4.80;4.50;;;24.00;80.50;;;;;;5074003;28;20515;-80
2021/07/02 10:12:53;;;;;;;4.53;4.33;;;24.20;80.60;;;;;;5054126;28;20459;-85
2021/07/02 10:15:20;;;;;;;5.50;5.10;;;24.40;78.20;;;;;;5059534;28;20439;-85
2021/07/02 10:17:46;;;;;;;5.27;4.97;;;24.50;77.20;;;;;;5043494;28;20478;-86
2021/07/02 10:20:14;;;;;;;4.60;4.30;;;24.40;76.20;;;;;;5054174;28;20763;-84
2021/07/02 10:22:41;;;;;;;5.00;4.70;;;24.30;76.10;;;;;;5054792;28;20478;-84
2021/07/02 10:25:10;;;;;;;5.30;4.90;;;24.20;75.60;;;;;;5058759;28;20760;-83
2021/07/02 10:27:38;;;;;;;4.80;4.50;;;24.00;74.70;;;;;;5055265;28;20423;-85
2021/07/02 10:30:05;;;;;;;5.57;5.13;;;23.90;72.40;;;;;;5064569;28;20416;-85
2021/07/02 10:32:33;;;;;;;4.60;4.37;;;23.90;71.50;;;;;;5058393;28;20863;-84
2021/07/02 10:34:59;;;;;;;5.20;4.90;;;24.20;74.70;;;;;;5073289;28;20543;-84
2021/07/02 10:37:26;;;;;;;5.57;5.27;;;24.30;76.30;;;;;;5073056;28;20476;-85
2021/07/02 10:39:53;;;;;;;5.17;4.87;;;24.40;73.20;;;;;;5072476;28;20450;-84
2021/07/02 10:42:19;;;;;;;5.30;5.00;;;24.50;71.60;;;;;;5073533;28;20430;-84
2021/07/02 10:44:54;;;;;;;5.50;4.97;;;24.50;70.50;;;;;;5072828;28;20447;-84
2021/07/02 10:47:21;;;;;;;6.00;5.60;;;24.50;71.40;;;;;;5073483;28;20422;-84
2021/07/02 10:49:48;;;;;;;6.23;5.70;;;24.50;72.50;;;;;;5054945;28;20408;-84
2021/07/02 10:52:21;;;;;;;4.97;4.67;;;24.60;75.10;;;;;;5073384;28;20450;-84
2021/07/02 10:54:49;;;;;;;6.77;6.40;;;24.50;73.00;;;;;;5055144;28;20584;-85
2021/07/02 10:57:19;;;;;;;6.47;6.07;;;24.50;73.00;;;;;;5073178;28;20411;-84
2021/07/02 10:59:48;;;;;;;6.33;6.03;;;24.50;74.60;;;;;;5072544;28;20396;-84
2021/07/02 11:02:17;;;;;;;6.40;6.00;;;24.30;71.30;;;;;;5073252;28;20411;-85
2021/07/02 11:04:44;;;;;;;6.53;6.23;;;24.20;69.00;;;;;;5072579;28;20490;-83
2021/07/02 11:07:21;;;;;;;7.50;7.00;;;24.10;75.70;;;;;;5073117;28;20498;-84
2021/07/02 11:09:50;;;;;;;7.10;6.80;;;24.30;78.30;;;;;;5072548;28;20411;-84
2021/07/02 11:12:29;;;;;;;6.33;6.03;;;24.30;72.70;;;;;;5073221;28;20455;-85
2021/07/02 11:14:55;;;;;;;7.80;7.40;;;24.20;68.30;;;;;;5072612;28;20450;-84
2021/07/02 11:17:26;;;;;;;6.87;6.47;;;24.30;76.20;;;;;;5073013;28;20495;-84
2021/07/02 11:20:10;;;;;;;7.00;6.60;;;24.50;73.60;;;;;;5072228;28;20415;-84
2021/07/02 11:22:37;;;;;;;8.03;7.43;;;24.70;71.20;;;;;;5073028;28;20781;-85
2021/07/02 11:25:12;;;;;;;8.60;8.00;;;24.90;72.20;;;;;;5072515;28;20895;-85
2021/07/02 11:27:42;;;;;;;6.07;5.63;;;24.70;69.00;;;;;;5072930;28;20429;-85
2021/07/02 11:30:29;;;;;;;6.90;6.50;;;24.40;71.70;;;;;;5072486;28;20560;-85
2021/07/02 11:32:58;;;;;;;6.97;6.47;;;24.30;71.50;;;;;;5072110;28;20458;-84
2021/07/02 11:35:27;;;;;;;6.93;6.40;;;24.10;73.00;;;;;;5072913;28;20419;-84
2021/07/02 11:38:01;;;;;;;6.07;5.67;;;24.00;72.60;;;;;;5072166;28;20958;-84
2021/07/02 11:40:53;;;;;;;6.23;5.63;;;23.90;73.60;;;;;;5072770;28;20414;-84
2021/07/02 11:43:41;;;;;;;6.40;5.97;;;23.90;73.60;;;;;;5072601;28;20423;-84
2021/07/02 11:46:13;;;;;;;5.90;5.30;;;24.00;76.40;;;;;;5054446;28;20791;-84
2021/07/02 11:48:42;;;;;;;6.37;5.87;;;24.30;75.70;;;;;;5054889;28;20765;-85
2021/07/02 11:51:13;;;;;;;5.87;5.47;;;24.60;73.00;;;;;;5071610;28;20946;-84
2021/07/02 11:53:42;;;;;;;5.73;5.33;;;24.80;72.70;;;;;;5072636;28;20452;-85
2021/07/02 11:56:12;;;;;;;5.57;5.17;;;25.00;74.20;;;;;;5071994;28;20517;-84
2021/07/02 11:58:51;;;;;;;5.90;5.40;;;25.10;73.00;;;;;;5072491;28;20434;-85
2021/07/02 12:01:21;;;;;;;5.83;5.43;;;25.20;71.00;;;;;;5072554;28;20406;-85
2021/07/02 12:03:55;;;;;;;6.00;5.60;;;25.10;69.00;;;;;;5071309;28;20512;-83
2021/07/02 12:06:26;;;;;;;5.30;4.87;;;25.10;72.50;;;;;;5072113;28;20404;-84
2021/07/02 12:09:06;;;;;;;6.57;5.23;;;25.00;72.90;;;;;;5071867;28;20407;-85
2021/07/02 12:11:39;;;;;;;5.77;5.37;;;24.90;70.70;;;;;;5072360;28;20791;-84
2021/07/02 12:14:08;;;;;;;6.47;5.97;;;24.80;71.20;;;;;;5071701;28;20423;-84
2021/07/02 12:16:40;;;;;;;5.53;5.10;;;24.90;74.90;;;;;;5054524;28;20422;-84
2021/07/02 12:19:08;;;;;;;6.80;6.30;;;25.10;75.50;;;;;;5054076;28;20450;-82
2021/07/02 12:21:36;;;;;;;5.90;5.40;;;25.20;72.40;;;;;;5072733;28;20419;-82
2021/07/02 12:24:07;;;;;;;6.73;6.27;;;25.10;69.20;;;;;;5074041;28;20431;-83
2021/07/02 12:26:35;;;;;;;6.97;6.57;;;25.00;68.60;;;;;;5073298;28;20411;-83
2021/07/02 12:29:08;;;;;;;6.40;5.80;;;25.00;70.40;;;;;;5073330;28;20440;-84
2021/07/02 12:31:44;;;;;;;6.20;5.80;;;24.80;70.30;;;;;;5073461;28;20851;-83
2021/07/02 12:34:32;;;;;;;6.07;5.67;;;24.60;71.60;;;;;;5071679;28;20410;-83
2021/07/02 12:37:03;;;;;;;6.53;6.03;;;24.50;72.90;;;;;;5071396;28;20409;-83
2021/07/02 12:39:32;;;;;;;7.33;6.80;;;24.40;72.80;;;;;;5072391;28;20481;-83